Main page
METAR-TAF:

METAR-TAF

Airports :

Zagreb, Croatia

Zagreb Airport

latitude: 45-44N, longitude: 016-04E, elevation: 106 m

Current weather observation

The report was made 42 minutes ago, at 02:00 UTC
Wind 3 kt from the West/Southwest, varying between Southwest and West
Temperature 13°C
Humidity 94%
Pressure 1006 hPa
Visibility 10 km or more
no clouds below 1500 m and no cumulonimbus

METAR: LDZA 260200Z 24003KT 220V280 CAVOK 13/12 Q1006 NOSIG

Time: 04:42 (02:42 UTC)

Forecast

The report was made 3 hours and 17 minutes ago, at 23:25 UTC
Forecast valid from 26 at 00 UTC to 26 at 24 UTC
Wind 2 kt from variable directions
Visibility 10 km or more
no clouds below 1500 m and no cumulonimbus
Probability 30% :
Temporary
from 26 at 12 UTC to 26 at 18 UTC
Wind 10 kt from the Northwest
Few clouds at a height of 4000 ft, Cumulonimbus.
thunderstorm, rain

TAF: LDZA 252325Z 2600/2624 VRB02KT CAVOK TX27/2613Z TN13/2603Z PROB30 TEMPO 2612/2618 32010KT TSRA FEW040CB

Weather observations and forecasts of more than 4000 airports (METAR and TAF reports).

The available stations are represented by yellow and red dots on the map.

Hover mouse over dot to see the name of the station.

Then click to see weather observations and forecasts.

To change the map : click on the green buttons with a black cross to zoom in, on the green button with a dash to zoom out, or on the green arrows for adjacent maps.


METAR-TAF: